sensor_id;sensor_type;location;lat;lon;timestamp;temperature;humidity
2100;DHT22;1055;48.854;9.302;2023-06-22T00:00:58;23.40;99.90
2100;DHT22;1055;48.854;9.302;2023-06-22T00:03:25;23.20;99.90
2100;DHT22;1055;48.854;9.302;2023-06-22T00:05:51;23.30;99.90
2100;DHT22;1055;48.854;9.302;2023-06-22T00:08:18;23.30;99.90
2100;DHT22;1055;48.854;9.302;2023-06-22T00:10:45;23.30;99.90
2100;DHT22;1055;48.854;9.302;2023-06-22T00:13:11;23.30;99.90
2100;DHT22;1055;48.854;9.302;2023-06-22T00:15:38;23.30;99.90
2100;DHT22;1055;48.854;9.302;2023-06-22T00:18:06;23.20;99.90
2100;DHT22;1055;48.854;9.302;2023-06-22T00:20:32;23.00;99.90
2100;DHT22;1055;48.854;9.302;2023-06-22T00:22:59;23.10;99.90
2100;DHT22;1055;48.854;9.302;2023-06-22T00:25:25;23.20;99.90
2100;DHT22;1055;48.854;9.302;2023-06-22T00:27:51;23.20;99.90
2100;DHT22;1055;48.854;9.302;2023-06-22T00:30:18;23.20;99.90
2100;DHT22;1055;48.854;9.302;2023-06-22T00:32:44;23.10;99.90
2100;DHT22;1055;48.854;9.302;2023-06-22T00:35:11;23.20;99.90
2100;DHT22;1055;48.854;9.302;2023-06-22T00:37:37;22.50;99.90
2100;DHT22;1055;48.854;9.302;2023-06-22T00:40:04;22.40;99.90
2100;DHT22;1055;48.854;9.302;2023-06-22T00:42:30;22.40;99.90
2100;DHT22;1055;48.854;9.302;2023-06-22T00:44:56;21.90;99.90
2100;DHT22;1055;48.854;9.302;2023-06-22T00:47:22;21.90;99.90
2100;DHT22;1055;48.854;9.302;2023-06-22T00:49:49;22.10;99.90
2100;DHT22;1055;48.854;9.302;2023-06-22T00:52:20;22.10;99.90
2100;DHT22;1055;48.854;9.302;2023-06-22T00:54:51;22.40;99.90
2100;DHT22;1055;48.854;9.302;2023-06-22T00:57:17;22.50;99.90
2100;DHT22;1055;48.854;9.302;2023-06-22T00:59:45;22.60;99.90
2100;DHT22;1055;48.854;9.302;2023-06-22T01:02:11;22.60;99.90
2100;DHT22;1055;48.854;9.302;2023-06-22T01:04:38;22.60;99.90
2100;DHT22;1055;48.854;9.302;2023-06-22T01:07:13;22.20;99.90
2100;DHT22;1055;48.854;9.302;2023-06-22T01:09:56;22.00;99.90
2100;DHT22;1055;48.854;9.302;2023-06-22T01:12:23;21.80;99.90
2100;DHT22;1055;48.854;9.302;2023-06-22T01:15:08;21.70;99.90
2100;DHT22;1055;48.854;9.302;2023-06-22T01:17:36;21.90;99.90
2100;DHT22;1055;48.854;9.302;2023-06-22T01:20:07;22.00;99.90
2100;DHT22;1055;48.854;9.302;2023-06-22T01:23:15;22.10;99.90
2100;DHT22;1055;48.854;9.302;2023-06-22T01:28:23;21.70;99.90
2100;DHT22;1055;48.854;9.302;2023-06-22T01:30:49;21.30;99.90
2100;DHT22;1055;48.854;9.302;2023-06-22T01:33:28;21.50;99.90
2100;DHT22;1055;48.854;9.302;2023-06-22T01:35:54;21.40;99.90
2100;DHT22;1055;48.854;9.302;2023-06-22T01:38:20;21.30;99.90
2100;DHT22;1055;48.854;9.302;2023-06-22T01:40:46;21.30;99.90
2100;DHT22;1055;48.854;9.302;2023-06-22T01:43:12;21.40;99.90
2100;DHT22;1055;48.854;9.302;2023-06-22T01:45:38;21.50;99.90
2100;DHT22;1055;48.854;9.302;2023-06-22T01:48:04;21.30;99.90
2100;DHT22;1055;48.854;9.302;2023-06-22T01:50:30;21.40;99.90
2100;DHT22;1055;48.854;9.302;2023-06-22T01:52:55;21.20;99.90
2100;DHT22;1055;48.854;9.302;2023-06-22T01:55:21;21.20;99.90
2100;DHT22;1055;48.854;9.302;2023-06-22T01:57:47;21.40;99.90
2100;DHT22;1055;48.854;9.302;2023-06-22T02:00:17;21.20;99.90
2100;DHT22;1055;48.854;9.302;2023-06-22T02:03:11;21.40;99.90
2100;DHT22;1055;48.854;9.302;2023-06-22T02:05:48;21.10;99.90
2100;DHT22;1055;48.854;9.302;2023-06-22T02:08:33;21.30;99.90
2100;DHT22;1055;48.854;9.302;2023-06-22T02:11:00;21.40;99.90
2100;DHT22;1055;48.854;9.302;2023-06-22T02:13:27;21.30;99.90
2100;DHT22;1055;48.854;9.302;2023-06-22T02:15:53;21.00;99.90
2100;DHT22;1055;48.854;9.302;2023-06-22T02:18:19;21.10;99.90
2100;DHT22;1055;48.854;9.302;2023-06-22T02:20:46;20.90;99.90
2100;DHT22;1055;48.854;9.302;2023-06-22T02:23:11;21.00;99.90
2100;DHT22;1055;48.854;9.302;2023-06-22T02:25:37;21.10;99.90
2100;DHT22;1055;48.854;9.302;2023-06-22T02:28:03;21.10;99.90
2100;DHT22;1055;48.854;9.302;2023-06-22T02:30:29;21.30;99.90
2100;DHT22;1055;48.854;9.302;2023-06-22T02:32:54;21.40;99.90
2100;DHT22;1055;48.854;9.302;2023-06-22T02:35:28;21.00;99.90
2100;DHT22;1055;48.854;9.302;2023-06-22T02:38:01;21.00;99.90
2100;DHT22;1055;48.854;9.302;2023-06-22T02:40:28;21.20;99.90
2100;DHT22;1055;48.854;9.302;2023-06-22T02:42:54;21.10;99.90
2100;DHT22;1055;48.854;9.302;2023-06-22T02:45:20;21.00;99.90
2100;DHT22;1055;48.854;9.302;2023-06-22T02:47:46;21.10;99.90
2100;DHT22;1055;48.854;9.302;2023-06-22T02:50:13;21.30;99.90
2100;DHT22;1055;48.854;9.302;2023-06-22T02:52:39;21.20;99.90
2100;DHT22;1055;48.854;9.302;2023-06-22T02:55:05;21.00;99.90
2100;DHT22;1055;48.854;9.302;2023-06-22T02:57:32;21.20;99.90
2100;DHT22;1055;48.854;9.302;2023-06-22T02:59:58;21.30;99.90
2100;DHT22;1055;48.854;9.302;2023-06-22T03:02:24;21.40;99.90
2100;DHT22;1055;48.854;9.302;2023-06-22T03:04:51;21.50;99.90
2100;DHT22;1055;48.854;9.302;2023-06-22T03:07:19;21.50;99.90
2100;DHT22;1055;48.854;9.302;2023-06-22T03:09:45;21.20;99.90
2100;DHT22;1055;48.854;9.302;2023-06-22T03:12:11;20.80;99.90
2100;DHT22;1055;48.854;9.302;2023-06-22T03:14:37;20.80;99.90
2100;DHT22;1055;48.854;9.302;2023-06-22T03:17:04;20.80;99.90
2100;DHT22;1055;48.854;9.302;2023-06-22T03:19:31;20.90;99.90
2100;DHT22;1055;48.854;9.302;2023-06-22T03:21:59;21.00;99.90
2100;DHT22;1055;48.854;9.302;2023-06-22T03:24:24;21.10;99.90
2100;DHT22;1055;48.854;9.302;2023-06-22T03:26:50;21.20;99.90
2100;DHT22;1055;48.854;9.302;2023-06-22T03:29:15;21.20;99.90
2100;DHT22;1055;48.854;9.302;2023-06-22T03:31:41;20.90;99.90
2100;DHT22;1055;48.854;9.302;2023-06-22T03:34:07;21.00;99.90
2100;DHT22;1055;48.854;9.302;2023-06-22T03:36:34;21.10;99.90
2100;DHT22;1055;48.854;9.302;2023-06-22T03:39:00;21.30;99.90
2100;DHT22;1055;48.854;9.302;2023-06-22T03:41:26;21.30;99.90
2100;DHT22;1055;48.854;9.302;2023-06-22T03:43:51;21.30;99.90
2100;DHT22;1055;48.854;9.302;2023-06-22T03:46:17;21.40;99.90
2100;DHT22;1055;48.854;9.302;2023-06-22T03:48:43;21.40;99.90
2100;DHT22;1055;48.854;9.302;2023-06-22T03:51:08;21.40;99.90
2100;DHT22;1055;48.854;9.302;2023-06-22T03:53:35;21.40;99.90
2100;DHT22;1055;48.854;9.302;2023-06-22T03:56:03;21.20;99.90
2100;DHT22;1055;48.854;9.302;2023-06-22T03:58:30;21.20;99.90
2100;DHT22;1055;48.854;9.302;2023-06-22T04:00:58;21.20;99.90
2100;DHT22;1055;48.854;9.302;2023-06-22T04:03:25;21.50;99.90
2100;DHT22;1055;48.854;9.302;2023-06-22T04:05:51;21.70;99.90
2100;DHT22;1055;48.854;9.302;2023-06-22T04:08:18;21.80;99.90
2100;DHT22;1055;48.854;9.302;2023-06-22T04:10:44;21.70;99.90
2100;DHT22;1055;48.854;9.302;2023-06-22T04:13:10;21.70;99.90
2100;DHT22;1055;48.854;9.302;2023-06-22T04:15:36;21.80;99.90
2100;DHT22;1055;48.854;9.302;2023-06-22T04:18:01;21.60;99.90
2100;DHT22;1055;48.854;9.302;2023-06-22T04:20:27;21.40;99.90
2100;DHT22;1055;48.854;9.302;2023-06-22T04:22:53;21.60;99.90
2100;DHT22;1055;48.854;9.302;2023-06-22T04:25:19;21.20;99.90
2100;DHT22;1055;48.854;9.302;2023-06-22T04:27:45;21.50;99.90
2100;DHT22;1055;48.854;9.302;2023-06-22T04:30:12;21.20;99.90
2100;DHT22;1055;48.854;9.302;2023-06-22T04:32:41;21.10;99.90
2100;DHT22;1055;48.854;9.302;2023-06-22T04:35:07;21.30;99.90
2100;DHT22;1055;48.854;9.302;2023-06-22T04:37:34;21.30;99.90
2100;DHT22;1055;48.854;9.302;2023-06-22T04:39:59;21.30;99.90
2100;DHT22;1055;48.854;9.302;2023-06-22T04:42:28;21.40;99.90
2100;DHT22;1055;48.854;9.302;2023-06-22T04:44:54;21.60;99.90
2100;DHT22;1055;48.854;9.302;2023-06-22T04:47:20;21.60;99.90
2100;DHT22;1055;48.854;9.302;2023-06-22T04:49:46;21.70;99.90
2100;DHT22;1055;48.854;9.302;2023-06-22T04:52:13;21.60;99.90
2100;DHT22;1055;48.854;9.302;2023-06-22T04:54:45;21.40;99.90
2100;DHT22;1055;48.854;9.302;2023-06-22T04:57:13;21.80;99.90
2100;DHT22;1055;48.854;9.302;2023-06-22T04:59:40;21.70;99.90
2100;DHT22;1055;48.854;9.302;2023-06-22T05:02:07;21.90;99.90
2100;DHT22;1055;48.854;9.302;2023-06-22T05:04:34;22.10;99.90
2100;DHT22;1055;48.854;9.302;2023-06-22T05:07:02;22.30;99.90
2100;DHT22;1055;48.854;9.302;2023-06-22T05:09:28;22.50;99.90
2100;DHT22;1055;48.854;9.302;2023-06-22T05:11:54;22.60;99.90
2100;DHT22;1055;48.854;9.302;2023-06-22T05:14:22;22.40;99.90
2100;DHT22;1055;48.854;9.302;2023-06-22T05:16:48;22.50;99.90
2100;DHT22;1055;48.854;9.302;2023-06-22T05:19:14;22.50;99.90
2100;DHT22;1055;48.854;9.302;2023-06-22T05:21:40;22.30;99.90
2100;DHT22;1055;48.854;9.302;2023-06-22T05:24:06;21.80;99.90
2100;DHT22;1055;48.854;9.302;2023-06-22T05:26:33;22.20;99.90
2100;DHT22;1055;48.854;9.302;2023-06-22T05:29:00;22.40;99.90
2100;DHT22;1055;48.854;9.302;2023-06-22T05:31:26;22.30;99.90
2100;DHT22;1055;48.854;9.302;2023-06-22T05:33:53;22.40;99.90
2100;DHT22;1055;48.854;9.302;2023-06-22T05:36:19;22.60;99.90
2100;DHT22;1055;48.854;9.302;2023-06-22T05:38:47;22.60;99.90
2100;DHT22;1055;48.854;9.302;2023-06-22T05:41:13;22.40;99.90
2100;DHT22;1055;48.854;9.302;2023-06-22T05:43:39;22.60;99.90
2100;DHT22;1055;48.854;9.302;2023-06-22T05:46:05;22.60;99.90
2100;DHT22;1055;48.854;9.302;2023-06-22T05:48:31;22.60;99.90
2100;DHT22;1055;48.854;9.302;2023-06-22T05:50:57;22.60;99.90
2100;DHT22;1055;48.854;9.302;2023-06-22T05:53:23;22.80;99.90
2100;DHT22;1055;48.854;9.302;2023-06-22T05:55:49;22.70;99.90
2100;DHT22;1055;48.854;9.302;2023-06-22T05:58:15;22.90;99.90
2100;DHT22;1055;48.854;9.302;2023-06-22T06:00:41;23.10;99.90
2100;DHT22;1055;48.854;9.302;2023-06-22T06:03:07;22.90;99.90
2100;DHT22;1055;48.854;9.302;2023-06-22T06:05:33;23.00;99.90
2100;DHT22;1055;48.854;9.302;2023-06-22T06:08:04;23.10;99.90
2100;DHT22;1055;48.854;9.302;2023-06-22T06:10:31;22.80;99.90
2100;DHT22;1055;48.854;9.302;2023-06-22T06:12:57;23.10;99.90
2100;DHT22;1055;48.854;9.302;2023-06-22T06:15:23;23.30;99.90
2100;DHT22;1055;48.854;9.302;2023-06-22T06:17:50;23.50;99.90
2100;DHT22;1055;48.854;9.302;2023-06-22T06:20:18;23.60;99.90
2100;DHT22;1055;48.854;9.302;2023-06-22T06:22:45;23.70;99.90
2100;DHT22;1055;48.854;9.302;2023-06-22T06:25:10;23.50;99.90
2100;DHT22;1055;48.854;9.302;2023-06-22T06:27:42;23.50;99.90
2100;DHT22;1055;48.854;9.302;2023-06-22T06:30:09;23.60;99.90
2100;DHT22;1055;48.854;9.302;2023-06-22T06:32:35;23.60;99.90
2100;DHT22;1055;48.854;9.302;2023-06-22T06:35:00;23.70;99.90
2100;DHT22;1055;48.854;9.302;2023-06-22T06:37:26;23.80;99.90
2100;DHT22;1055;48.854;9.302;2023-06-22T06:39:52;23.80;99.90
2100;DHT22;1055;48.854;9.302;2023-06-22T06:42:17;23.90;99.90
2100;DHT22;1055;48.854;9.302;2023-06-22T06:44:44;23.80;99.90
2100;DHT22;1055;48.854;9.302;2023-06-22T06:47:10;23.80;99.90
2100;DHT22;1055;48.854;9.302;2023-06-22T06:49:36;24.00;99.90
2100;DHT22;1055;48.854;9.302;2023-06-22T06:52:01;24.00;99.90
2100;DHT22;1055;48.854;9.302;2023-06-22T06:54:27;23.60;99.90
2100;DHT22;1055;48.854;9.302;2023-06-22T06:56:53;23.90;99.90
2100;DHT22;1055;48.854;9.302;2023-06-22T06:59:18;24.00;99.90
2100;DHT22;1055;48.854;9.302;2023-06-22T07:01:44;24.10;99.90
2100;DHT22;1055;48.854;9.302;2023-06-22T07:04:10;24.30;99.90
2100;DHT22;1055;48.854;9.302;2023-06-22T07:06:36;24.40;99.90
2100;DHT22;1055;48.854;9.302;2023-06-22T07:09:01;24.40;99.90
2100;DHT22;1055;48.854;9.302;2023-06-22T07:11:29;24.50;99.90
2100;DHT22;1055;48.854;9.302;2023-06-22T07:13:54;24.50;99.90
2100;DHT22;1055;48.854;9.302;2023-06-22T07:16:20;24.60;99.90
2100;DHT22;1055;48.854;9.302;2023-06-22T07:18:45;24.60;99.90
2100;DHT22;1055;48.854;9.302;2023-06-22T07:21:11;24.60;99.90
2100;DHT22;1055;48.854;9.302;2023-06-22T07:23:36;24.80;99.90
2100;DHT22;1055;48.854;9.302;2023-06-22T07:26:02;24.90;99.90
2100;DHT22;1055;48.854;9.302;2023-06-22T07:31:50;24.80;99.90
2100;DHT22;1055;48.854;9.302;2023-06-22T07:34:19;25.00;99.90
2100;DHT22;1055;48.854;9.302;2023-06-22T07:36:45;24.80;99.90
2100;DHT22;1055;48.854;9.302;2023-06-22T07:39:11;24.80;99.90
2100;DHT22;1055;48.854;9.302;2023-06-22T07:41:39;25.00;99.90
2100;DHT22;1055;48.854;9.302;2023-06-22T07:44:04;25.20;99.90
2100;DHT22;1055;48.854;9.302;2023-06-22T07:46:31;25.20;99.90
2100;DHT22;1055;48.854;9.302;2023-06-22T07:48:57;25.30;99.90
2100;DHT22;1055;48.854;9.302;2023-06-22T07:51:23;25.40;99.90
2100;DHT22;1055;48.854;9.302;2023-06-22T07:53:49;25.40;99.90
2100;DHT22;1055;48.854;9.302;2023-06-22T07:56:14;25.60;99.90
2100;DHT22;1055;48.854;9.302;2023-06-22T07:58:44;25.80;99.90
2100;DHT22;1055;48.854;9.302;2023-06-22T08:01:11;25.90;99.90
2100;DHT22;1055;48.854;9.302;2023-06-22T08:03:37;26.00;99.90
2100;DHT22;1055;48.854;9.302;2023-06-22T08:06:02;26.10;99.90
2100;DHT22;1055;48.854;9.302;2023-06-22T08:08:28;26.20;99.90
2100;DHT22;1055;48.854;9.302;2023-06-22T08:10:54;26.40;99.90
2100;DHT22;1055;48.854;9.302;2023-06-22T08:13:19;26.40;99.90
2100;DHT22;1055;48.854;9.302;2023-06-22T08:15:45;26.50;99.90
2100;DHT22;1055;48.854;9.302;2023-06-22T08:18:11;26.50;99.90
2100;DHT22;1055;48.854;9.302;2023-06-22T08:20:36;26.60;99.90
2100;DHT22;1055;48.854;9.302;2023-06-22T08:23:02;26.60;99.90
2100;DHT22;1055;48.854;9.302;2023-06-22T08:25:34;26.90;99.90
2100;DHT22;1055;48.854;9.302;2023-06-22T08:28:04;27.00;99.90
2100;DHT22;1055;48.854;9.302;2023-06-22T08:30:30;26.80;99.90
2100;DHT22;1055;48.854;9.302;2023-06-22T08:32:55;27.00;99.90
2100;DHT22;1055;48.854;9.302;2023-06-22T08:35:22;27.30;99.90
2100;DHT22;1055;48.854;9.302;2023-06-22T08:37:48;27.50;99.90
2100;DHT22;1055;48.854;9.302;2023-06-22T08:40:18;27.20;99.90
2100;DHT22;1055;48.854;9.302;2023-06-22T08:42:46;27.00;99.90
2100;DHT22;1055;48.854;9.302;2023-06-22T08:45:13;26.90;99.90
2100;DHT22;1055;48.854;9.302;2023-06-22T08:47:39;27.10;99.90
2100;DHT22;1055;48.854;9.302;2023-06-22T08:50:07;27.30;99.90
2100;DHT22;1055;48.854;9.302;2023-06-22T08:52:34;27.70;99.90
2100;DHT22;1055;48.854;9.302;2023-06-22T08:54:59;27.80;99.90
2100;DHT22;1055;48.854;9.302;2023-06-22T08:57:25;27.80;99.90
2100;DHT22;1055;48.854;9.302;2023-06-22T08:59:51;27.90;99.90
2100;DHT22;1055;48.854;9.302;2023-06-22T09:02:24;27.80;99.90
2100;DHT22;1055;48.854;9.302;2023-06-22T09:04:49;27.70;99.90
2100;DHT22;1055;48.854;9.302;2023-06-22T09:07:24;27.60;99.90
2100;DHT22;1055;48.854;9.302;2023-06-22T09:09:50;27.90;99.90
2100;DHT22;1055;48.854;9.302;2023-06-22T09:12:17;27.70;99.90
2100;DHT22;1055;48.854;9.302;2023-06-22T09:14:45;27.60;99.90
2100;DHT22;1055;48.854;9.302;2023-06-22T09:17:12;27.90;99.90
2100;DHT22;1055;48.854;9.302;2023-06-22T09:19:38;28.20;99.90
2100;DHT22;1055;48.854;9.302;2023-06-22T09:22:04;28.20;99.90
2100;DHT22;1055;48.854;9.302;2023-06-22T09:24:32;28.10;99.90
2100;DHT22;1055;48.854;9.302;2023-06-22T09:26:57;28.20;99.90
2100;DHT22;1055;48.854;9.302;2023-06-22T09:29:24;28.10;99.90
2100;DHT22;1055;48.854;9.302;2023-06-22T09:31:50;27.80;99.90
2100;DHT22;1055;48.854;9.302;2023-06-22T09:34:16;27.90;99.90
2100;DHT22;1055;48.854;9.302;2023-06-22T09:36:48;27.90;99.90
2100;DHT22;1055;48.854;9.302;2023-06-22T09:39:14;27.90;99.90
2100;DHT22;1055;48.854;9.302;2023-06-22T09:41:40;28.00;99.90
2100;DHT22;1055;48.854;9.302;2023-06-22T09:44:06;28.20;99.90
2100;DHT22;1055;48.854;9.302;2023-06-22T09:46:32;28.30;99.90
2100;DHT22;1055;48.854;9.302;2023-06-22T09:48:57;28.40;99.90
2100;DHT22;1055;48.854;9.302;2023-06-22T09:51:23;28.50;99.90
2100;DHT22;1055;48.854;9.302;2023-06-22T09:53:50;28.60;99.90
2100;DHT22;1055;48.854;9.302;2023-06-22T09:56:16;28.80;99.90
2100;DHT22;1055;48.854;9.302;2023-06-22T09:58:42;28.70;99.90
2100;DHT22;1055;48.854;9.302;2023-06-22T10:01:09;28.90;99.90
2100;DHT22;1055;48.854;9.302;2023-06-22T10:03:36;29.20;99.90
2100;DHT22;1055;48.854;9.302;2023-06-22T10:06:03;29.20;99.90
2100;DHT22;1055;48.854;9.302;2023-06-22T10:08:29;29.40;99.90
2100;DHT22;1055;48.854;9.302;2023-06-22T10:10:55;29.60;99.90
2100;DHT22;1055;48.854;9.302;2023-06-22T10:13:21;29.70;99.90
2100;DHT22;1055;48.854;9.302;2023-06-22T10:15:47;29.70;99.90
2100;DHT22;1055;48.854;9.302;2023-06-22T10:18:20;29.80;99.90
2100;DHT22;1055;48.854;9.302;2023-06-22T10:20:48;29.50;99.90
2100;DHT22;1055;48.854;9.302;2023-06-22T10:23:14;29.90;99.90
2100;DHT22;1055;48.854;9.302;2023-06-22T10:25:40;30.10;99.90
2100;DHT22;1055;48.854;9.302;2023-06-22T10:28:05;30.20;99.90
2100;DHT22;1055;48.854;9.302;2023-06-22T10:30:31;30.40;99.90
2100;DHT22;1055;48.854;9.302;2023-06-22T10:32:57;30.10;99.90
2100;DHT22;1055;48.854;9.302;2023-06-22T10:35:22;30.40;99.90
2100;DHT22;1055;48.854;9.302;2023-06-22T10:37:48;30.20;99.90
2100;DHT22;1055;48.854;9.302;2023-06-22T10:40:16;30.20;99.90
2100;DHT22;1055;48.854;9.302;2023-06-22T10:42:42;30.60;99.90
2100;DHT22;1055;48.854;9.302;2023-06-22T10:45:08;30.40;99.90
2100;DHT22;1055;48.854;9.302;2023-06-22T10:47:34;30.40;99.90
2100;DHT22;1055;48.854;9.302;2023-06-22T10:50:01;30.70;99.90
2100;DHT22;1055;48.854;9.302;2023-06-22T10:52:27;30.90;99.90
2100;DHT22;1055;48.854;9.302;2023-06-22T10:54:53;31.20;99.90
2100;DHT22;1055;48.854;9.302;2023-06-22T10:57:18;31.50;99.90
2100;DHT22;1055;48.854;9.302;2023-06-22T10:59:44;31.00;99.90
2100;DHT22;1055;48.854;9.302;2023-06-22T11:02:10;31.40;99.90
2100;DHT22;1055;48.854;9.302;2023-06-22T11:04:35;31.70;99.90
2100;DHT22;1055;48.854;9.302;2023-06-22T11:07:01;31.90;99.90
2100;DHT22;1055;48.854;9.302;2023-06-22T11:09:27;32.00;99.90
2100;DHT22;1055;48.854;9.302;2023-06-22T11:11:53;32.10;99.90
2100;DHT22;1055;48.854;9.302;2023-06-22T11:14:19;31.40;99.90
2100;DHT22;1055;48.854;9.302;2023-06-22T11:16:46;31.60;99.90
2100;DHT22;1055;48.854;9.302;2023-06-22T11:19:14;31.80;99.50
2100;DHT22;1055;48.854;9.302;2023-06-22T11:21:40;32.00;99.20
2100;DHT22;1055;48.854;9.302;2023-06-22T11:24:06;31.80;98.30
2100;DHT22;1055;48.854;9.302;2023-06-22T11:26:32;31.80;99.00
2100;DHT22;1055;48.854;9.302;2023-06-22T11:28:58;31.40;99.20
2100;DHT22;1055;48.854;9.302;2023-06-22T11:31:24;31.60;99.10
2100;DHT22;1055;48.854;9.302;2023-06-22T11:33:50;31.70;98.70
2100;DHT22;1055;48.854;9.302;2023-06-22T11:36:16;31.40;98.80
2100;DHT22;1055;48.854;9.302;2023-06-22T11:38:42;31.70;98.80
2100;DHT22;1055;48.854;9.302;2023-06-22T11:41:09;31.70;98.10
2100;DHT22;1055;48.854;9.302;2023-06-22T11:43:35;31.80;98.20
2100;DHT22;1055;48.854;9.302;2023-06-22T11:46:03;31.90;98.50
2100;DHT22;1055;48.854;9.302;2023-06-22T11:48:28;31.00;97.20
2100;DHT22;1055;48.854;9.302;2023-06-22T11:50:54;31.20;99.60
2100;DHT22;1055;48.854;9.302;2023-06-22T11:53:23;31.70;99.60
2100;DHT22;1055;48.854;9.302;2023-06-22T11:55:50;31.60;96.70
2100;DHT22;1055;48.854;9.302;2023-06-22T11:58:16;31.90;98.10
2100;DHT22;1055;48.854;9.302;2023-06-22T12:00:41;32.20;98.70
2100;DHT22;1055;48.854;9.302;2023-06-22T12:03:07;32.20;98.40
2100;DHT22;1055;48.854;9.302;2023-06-22T12:05:33;32.20;98.90
2100;DHT22;1055;48.854;9.302;2023-06-22T12:07:59;32.10;97.10
2100;DHT22;1055;48.854;9.302;2023-06-22T12:10:27;32.00;94.80
2100;DHT22;1055;48.854;9.302;2023-06-22T12:12:56;32.20;95.30
2100;DHT22;1055;48.854;9.302;2023-06-22T12:15:23;32.30;95.80
2100;DHT22;1055;48.854;9.302;2023-06-22T12:17:49;32.20;97.90
2100;DHT22;1055;48.854;9.302;2023-06-22T12:20:14;32.30;98.00
2100;DHT22;1055;48.854;9.302;2023-06-22T12:22:41;32.30;97.20
2100;DHT22;1055;48.854;9.302;2023-06-22T12:25:10;32.30;95.90
2100;DHT22;1055;48.854;9.302;2023-06-22T12:27:36;32.10;96.00
2100;DHT22;1055;48.854;9.302;2023-06-22T12:30:03;32.30;95.40
2100;DHT22;1055;48.854;9.302;2023-06-22T12:32:29;32.40;95.00
2100;DHT22;1055;48.854;9.302;2023-06-22T12:34:55;32.30;95.70
2100;DHT22;1055;48.854;9.302;2023-06-22T12:37:20;32.20;96.10
2100;DHT22;1055;48.854;9.302;2023-06-22T12:39:46;31.70;96.70
2100;DHT22;1055;48.854;9.302;2023-06-22T12:42:12;32.10;96.70
2100;DHT22;1055;48.854;9.302;2023-06-22T12:44:40;32.10;95.80
2100;DHT22;1055;48.854;9.302;2023-06-22T12:47:07;32.00;95.90
2100;DHT22;1055;48.854;9.302;2023-06-22T12:49:34;32.10;96.40
2100;DHT22;1055;48.854;9.302;2023-06-22T12:52:00;32.00;95.80
2100;DHT22;1055;48.854;9.302;2023-06-22T12:54:26;31.80;96.90
2100;DHT22;1055;48.854;9.302;2023-06-22T12:56:51;31.60;98.00
2100;DHT22;1055;48.854;9.302;2023-06-22T12:59:17;31.60;98.50
2100;DHT22;1055;48.854;9.302;2023-06-22T13:01:43;31.50;98.40
2100;DHT22;1055;48.854;9.302;2023-06-22T13:04:11;31.50;98.60
2100;DHT22;1055;48.854;9.302;2023-06-22T13:06:42;31.50;99.80
2100;DHT22;1055;48.854;9.302;2023-06-22T13:09:10;31.50;99.40
2100;DHT22;1055;48.854;9.302;2023-06-22T13:11:35;31.40;99.90
2100;DHT22;1055;48.854;9.302;2023-06-22T13:14:01;31.40;99.90
2100;DHT22;1055;48.854;9.302;2023-06-22T13:16:27;31.60;99.90
2100;DHT22;1055;48.854;9.302;2023-06-22T13:18:52;31.80;99.90
2100;DHT22;1055;48.854;9.302;2023-06-22T13:21:18;31.80;99.10
2100;DHT22;1055;48.854;9.302;2023-06-22T13:23:44;32.00;97.70
2100;DHT22;1055;48.854;9.302;2023-06-22T13:26:09;31.90;96.70
2100;DHT22;1055;48.854;9.302;2023-06-22T13:28:35;31.70;97.90
2100;DHT22;1055;48.854;9.302;2023-06-22T13:31:01;31.70;96.90
2100;DHT22;1055;48.854;9.302;2023-06-22T13:33:26;31.70;96.90
2100;DHT22;1055;48.854;9.302;2023-06-22T13:35:52;31.70;96.80
2100;DHT22;1055;48.854;9.302;2023-06-22T13:38:18;32.00;96.30
2100;DHT22;1055;48.854;9.302;2023-06-22T13:40:44;32.30;96.20
2100;DHT22;1055;48.854;9.302;2023-06-22T13:43:09;32.50;96.10
2100;DHT22;1055;48.854;9.302;2023-06-22T13:45:35;32.20;95.00
2100;DHT22;1055;48.854;9.302;2023-06-22T13:48:00;32.20;96.50
2100;DHT22;1055;48.854;9.302;2023-06-22T13:50:26;32.70;95.90
2100;DHT22;1055;48.854;9.302;2023-06-22T13:52:53;32.80;95.30
2100;DHT22;1055;48.854;9.302;2023-06-22T13:55:18;32.90;92.90
2100;DHT22;1055;48.854;9.302;2023-06-22T13:57:46;33.20;92.60
2100;DHT22;1055;48.854;9.302;2023-06-22T14:00:12;33.40;92.00
2100;DHT22;1055;48.854;9.302;2023-06-22T14:02:38;33.60;92.90
2100;DHT22;1055;48.854;9.302;2023-06-22T14:05:06;33.50;95.90
2100;DHT22;1055;48.854;9.302;2023-06-22T14:07:33;32.80;96.50
2100;DHT22;1055;48.854;9.302;2023-06-22T14:10:00;33.20;96.40
2100;DHT22;1055;48.854;9.302;2023-06-22T14:12:26;33.10;96.70
2100;DHT22;1055;48.854;9.302;2023-06-22T14:14:53;33.30;96.10
2100;DHT22;1055;48.854;9.302;2023-06-22T14:17:19;33.20;96.50
2100;DHT22;1055;48.854;9.302;2023-06-22T14:19:52;33.10;95.90
2100;DHT22;1055;48.854;9.302;2023-06-22T14:22:20;33.20;96.80
2100;DHT22;1055;48.854;9.302;2023-06-22T14:24:50;33.50;95.70
2100;DHT22;1055;48.854;9.302;2023-06-22T14:27:16;33.70;93.30
2100;DHT22;1055;48.854;9.302;2023-06-22T14:29:42;33.20;91.80
2100;DHT22;1055;48.854;9.302;2023-06-22T14:32:08;33.40;88.00
2100;DHT22;1055;48.854;9.302;2023-06-22T14:34:35;33.50;86.30
2100;DHT22;1055;48.854;9.302;2023-06-22T14:37:02;33.60;88.00
2100;DHT22;1055;48.854;9.302;2023-06-22T14:39:28;33.70;88.30
2100;DHT22;1055;48.854;9.302;2023-06-22T14:41:53;33.70;85.20
2100;DHT22;1055;48.854;9.302;2023-06-22T14:44:20;33.40;86.60
2100;DHT22;1055;48.854;9.302;2023-06-22T14:46:47;33.60;79.60
2100;DHT22;1055;48.854;9.302;2023-06-22T14:49:13;33.50;82.00
2100;DHT22;1055;48.854;9.302;2023-06-22T14:51:39;33.50;85.00
2100;DHT22;1055;48.854;9.302;2023-06-22T14:54:05;33.50;83.70
2100;DHT22;1055;48.854;9.302;2023-06-22T14:56:31;33.90;81.80
2100;DHT22;1055;48.854;9.302;2023-06-22T14:58:57;33.70;81.60
2100;DHT22;1055;48.854;9.302;2023-06-22T15:01:23;33.80;81.20
2100;DHT22;1055;48.854;9.302;2023-06-22T15:03:50;33.50;82.40
2100;DHT22;1055;48.854;9.302;2023-06-22T15:06:17;34.00;81.90
2100;DHT22;1055;48.854;9.302;2023-06-22T15:08:43;34.00;80.70
2100;DHT22;1055;48.854;9.302;2023-06-22T15:11:09;33.90;80.30
2100;DHT22;1055;48.854;9.302;2023-06-22T15:13:34;33.70;78.70
2100;DHT22;1055;48.854;9.302;2023-06-22T15:16:03;33.50;79.80
2100;DHT22;1055;48.854;9.302;2023-06-22T15:18:29;33.40;78.20
2100;DHT22;1055;48.854;9.302;2023-06-22T15:20:55;33.20;77.80
2100;DHT22;1055;48.854;9.302;2023-06-22T15:23:21;33.30;75.40
2100;DHT22;1055;48.854;9.302;2023-06-22T15:25:46;33.50;76.80
2100;DHT22;1055;48.854;9.302;2023-06-22T15:28:12;33.60;73.50
2100;DHT22;1055;48.854;9.302;2023-06-22T15:30:38;33.70;63.60
2100;DHT22;1055;48.854;9.302;2023-06-22T15:33:04;33.70;62.70
2100;DHT22;1055;48.854;9.302;2023-06-22T15:35:30;33.70;59.60
2100;DHT22;1055;48.854;9.302;2023-06-22T15:37:55;34.00;59.60
2100;DHT22;1055;48.854;9.302;2023-06-22T15:40:21;34.00;59.10
2100;DHT22;1055;48.854;9.302;2023-06-22T15:42:49;33.50;58.80
2100;DHT22;1055;48.854;9.302;2023-06-22T15:45:15;33.30;58.60
2100;DHT22;1055;48.854;9.302;2023-06-22T15:47:41;33.30;58.40
2100;DHT22;1055;48.854;9.302;2023-06-22T15:50:07;33.30;58.20
2100;DHT22;1055;48.854;9.302;2023-06-22T15:52:33;33.30;58.50
2100;DHT22;1055;48.854;9.302;2023-06-22T15:54:58;33.30;59.60
2100;DHT22;1055;48.854;9.302;2023-06-22T15:57:26;33.50;59.90
2100;DHT22;1055;48.854;9.302;2023-06-22T15:59:52;33.50;57.70
2100;DHT22;1055;48.854;9.302;2023-06-22T16:02:18;33.20;59.60
2100;DHT22;1055;48.854;9.302;2023-06-22T16:04:44;33.10;58.80